Main page
METAR-TAF:

METAR-TAF

Airports :

Dushanbe, Tajikistan

Dushanbe International Airport

latitude: 38-33N, longitude: 068-47E, elevation: 803 m

Current weather observation

The report was made 39 minutes ago, at 08:30 UTC
Wind 4 kt from variable directions
Temperature 31°C
Humidity 19%
Pressure 1015 hPa
Visibility 10 km or more
Few clouds at a height of 6600 ft

METAR: UTDD 230830Z VRB02MPS 9999 FEW066 31/05 Q1015 R09/D NOSIG RMK QFE693/0924

Time: 14:09 (09:09 UTC)

Forecast

The report was made 3 hours and 9 minutes ago, at 06:00 UTC
Forecast valid from 23 at 07 UTC to 23 at 19 UTC
Wind 4 kt from variable directions
Visibility: 6000 m
Few clouds at a height of 6600 ft, Cumulonimbus.
Scattered clouds at a height of 10000 ft
Temporary
from 23 at 07 UTC to 23 at 19 UTC
Wind 14 kt from the West

TAF: UTDD 230600Z 2307/2319 VRB02MPS 6000 FEW066CB SCT100 TEMPO 2307/2319 27007MPS

Weather observations and forecasts of more than 4000 airports (METAR and TAF reports).

The available stations are represented by yellow and red dots on the map.

Hover mouse over dot to see the name of the station.

Then click to see weather observations and forecasts.

To change the map : click on the green buttons with a black cross to zoom in, on the green button with a dash to zoom out, or on the green arrows for adjacent maps.


METAR-TAF: